sensor_id;sensor_type;location;lat;lon;timestamp;P1;durP1;ratioP1;P2;durP2;ratioP2
13197;SDS011;6664;52.514;13.440;2024-02-14T00:02:35;6.20;;;3.60;;
13197;SDS011;6664;52.514;13.440;2024-02-14T00:05:23;4.37;;;3.97;;
13197;SDS011;6664;52.514;13.440;2024-02-14T00:08:09;5.80;;;4.10;;
13197;SDS011;6664;52.514;13.440;2024-02-14T00:10:55;14.67;;;4.30;;
13197;SDS011;6664;52.514;13.440;2024-02-14T00:13:41;6.20;;;3.60;;
13197;SDS011;6664;52.514;13.440;2024-02-14T00:16:27;6.40;;;4.50;;
13197;SDS011;6664;52.514;13.440;2024-02-14T00:19:15;10.70;;;4.20;;
13197;SDS011;6664;52.514;13.440;2024-02-14T00:22:00;5.37;;;3.80;;
13197;SDS011;6664;52.514;13.440;2024-02-14T00:24:46;8.10;;;4.77;;
13197;SDS011;6664;52.514;13.440;2024-02-14T00:27:32;4.67;;;3.53;;
13197;SDS011;6664;52.514;13.440;2024-02-14T00:30:17;7.23;;;3.67;;
13197;SDS011;6664;52.514;13.440;2024-02-14T00:33:03;3.87;;;3.50;;
13197;SDS011;6664;52.514;13.440;2024-02-14T00:35:50;5.20;;;3.97;;
13197;SDS011;6664;52.514;13.440;2024-02-14T00:38:35;5.60;;;3.87;;
13197;SDS011;6664;52.514;13.440;2024-02-14T00:41:21;4.27;;;3.40;;
13197;SDS011;6664;52.514;13.440;2024-02-14T00:44:06;5.40;;;4.30;;
13197;SDS011;6664;52.514;13.440;2024-02-14T00:46:58;3.90;;;3.37;;
13197;SDS011;6664;52.514;13.440;2024-02-14T00:49:47;5.03;;;3.50;;
13197;SDS011;6664;52.514;13.440;2024-02-14T00:52:33;5.97;;;4.23;;
13197;SDS011;6664;52.514;13.440;2024-02-14T00:55:19;4.90;;;3.77;;
13197;SDS011;6664;52.514;13.440;2024-02-14T00:58:04;6.00;;;3.50;;
13197;SDS011;6664;52.514;13.440;2024-02-14T01:00:50;5.27;;;3.63;;
13197;SDS011;6664;52.514;13.440;2024-02-14T01:03:35;6.37;;;3.97;;
13197;SDS011;6664;52.514;13.440;2024-02-14T01:06:28;5.37;;;3.50;;
13197;SDS011;6664;52.514;13.440;2024-02-14T01:09:18;3.50;;;3.20;;
13197;SDS011;6664;52.514;13.440;2024-02-14T01:12:04;4.87;;;3.23;;
13197;SDS011;6664;52.514;13.440;2024-02-14T01:14:50;3.73;;;3.43;;
13197;SDS011;6664;52.514;13.440;2024-02-14T01:17:35;4.20;;;3.70;;
13197;SDS011;6664;52.514;13.440;2024-02-14T01:20:23;3.73;;;3.27;;
13197;SDS011;6664;52.514;13.440;2024-02-14T01:23:09;7.60;;;3.90;;
13197;SDS011;6664;52.514;13.440;2024-02-14T01:25:55;3.60;;;2.77;;
13197;SDS011;6664;52.514;13.440;2024-02-14T01:28:40;4.17;;;3.53;;
13197;SDS011;6664;52.514;13.440;2024-02-14T01:31:29;2.97;;;2.77;;
13197;SDS011;6664;52.514;13.440;2024-02-14T01:34:15;4.03;;;3.63;;
13197;SDS011;6664;52.514;13.440;2024-02-14T01:37:00;6.70;;;4.87;;
13197;SDS011;6664;52.514;13.440;2024-02-14T01:39:47;7.27;;;4.17;;
13197;SDS011;6664;52.514;13.440;2024-02-14T01:42:33;9.53;;;3.90;;
13197;SDS011;6664;52.514;13.440;2024-02-14T01:45:18;4.47;;;3.73;;
13197;SDS011;6664;52.514;13.440;2024-02-14T01:48:04;8.47;;;4.77;;
13197;SDS011;6664;52.514;13.440;2024-02-14T01:50:52;3.90;;;3.50;;
13197;SDS011;6664;52.514;13.440;2024-02-14T01:53:37;7.03;;;3.87;;
13197;SDS011;6664;52.514;13.440;2024-02-14T01:56:23;3.20;;;2.93;;
13197;SDS011;6664;52.514;13.440;2024-02-14T01:59:09;4.63;;;3.40;;
13197;SDS011;6664;52.514;13.440;2024-02-14T02:01:57;7.27;;;3.87;;
13197;SDS011;6664;52.514;13.440;2024-02-14T02:04:44;5.40;;;3.67;;
13197;SDS011;6664;52.514;13.440;2024-02-14T02:07:32;3.83;;;3.13;;
13197;SDS011;6664;52.514;13.440;2024-02-14T02:10:17;4.03;;;3.50;;
13197;SDS011;6664;52.514;13.440;2024-02-14T02:13:03;4.53;;;2.87;;
13197;SDS011;6664;52.514;13.440;2024-02-14T02:15:49;4.07;;;2.80;;
13197;SDS011;6664;52.514;13.440;2024-02-14T02:18:37;4.73;;;3.53;;
13197;SDS011;6664;52.514;13.440;2024-02-14T02:21:23;5.10;;;3.10;;
13197;SDS011;6664;52.514;13.440;2024-02-14T02:24:09;4.40;;;2.90;;
13197;SDS011;6664;52.514;13.440;2024-02-14T02:26:54;4.60;;;3.67;;
13197;SDS011;6664;52.514;13.440;2024-02-14T02:29:41;4.47;;;3.90;;
13197;SDS011;6664;52.514;13.440;2024-02-14T02:32:28;5.27;;;3.30;;
13197;SDS011;6664;52.514;13.440;2024-02-14T02:35:14;4.40;;;3.07;;
13197;SDS011;6664;52.514;13.440;2024-02-14T02:38:00;4.37;;;3.23;;
13197;SDS011;6664;52.514;13.440;2024-02-14T02:40:45;6.13;;;3.30;;
13197;SDS011;6664;52.514;13.440;2024-02-14T02:43:33;4.97;;;2.83;;
13197;SDS011;6664;52.514;13.440;2024-02-14T02:46:19;5.63;;;2.80;;
13197;SDS011;6664;52.514;13.440;2024-02-14T02:49:07;4.00;;;2.80;;
13197;SDS011;6664;52.514;13.440;2024-02-14T02:51:53;3.90;;;3.17;;
13197;SDS011;6664;52.514;13.440;2024-02-14T02:54:39;3.53;;;3.23;;
13197;SDS011;6664;52.514;13.440;2024-02-14T02:57:26;4.87;;;3.70;;
13197;SDS011;6664;52.514;13.440;2024-02-14T03:00:12;2.53;;;2.33;;
13197;SDS011;6664;52.514;13.440;2024-02-14T03:02:59;6.50;;;2.90;;
13197;SDS011;6664;52.514;13.440;2024-02-14T03:05:45;6.23;;;4.17;;
13197;SDS011;6664;52.514;13.440;2024-02-14T03:08:32;3.27;;;3.07;;
13197;SDS011;6664;52.514;13.440;2024-02-14T03:11:19;3.43;;;3.17;;
13197;SDS011;6664;52.514;13.440;2024-02-14T03:14:05;4.80;;;4.00;;
13197;SDS011;6664;52.514;13.440;2024-02-14T03:16:50;4.57;;;3.30;;
13197;SDS011;6664;52.514;13.440;2024-02-14T03:19:36;5.13;;;3.20;;
13197;SDS011;6664;52.514;13.440;2024-02-14T03:22:23;4.00;;;3.40;;
13197;SDS011;6664;52.514;13.440;2024-02-14T03:25:09;3.20;;;2.83;;
13197;SDS011;6664;52.514;13.440;2024-02-14T03:27:57;2.90;;;2.63;;
13197;SDS011;6664;52.514;13.440;2024-02-14T03:30:43;2.70;;;2.50;;
13197;SDS011;6664;52.514;13.440;2024-02-14T03:33:29;5.00;;;3.37;;
13197;SDS011;6664;52.514;13.440;2024-02-14T03:36:15;2.80;;;2.60;;
13197;SDS011;6664;52.514;13.440;2024-02-14T03:39:01;3.30;;;2.97;;
13197;SDS011;6664;52.514;13.440;2024-02-14T03:41:49;3.20;;;2.73;;
13197;SDS011;6664;52.514;13.440;2024-02-14T03:44:35;3.67;;;2.70;;
13197;SDS011;6664;52.514;13.440;2024-02-14T03:47:23;3.57;;;3.27;;
13197;SDS011;6664;52.514;13.440;2024-02-14T03:50:12;3.03;;;2.73;;
13197;SDS011;6664;52.514;13.440;2024-02-14T03:52:58;3.73;;;2.67;;
13197;SDS011;6664;52.514;13.440;2024-02-14T03:55:48;3.70;;;3.27;;
13197;SDS011;6664;52.514;13.440;2024-02-14T03:58:34;4.43;;;3.40;;
13197;SDS011;6664;52.514;13.440;2024-02-14T04:01:22;3.20;;;2.87;;
13197;SDS011;6664;52.514;13.440;2024-02-14T04:04:07;3.03;;;2.57;;
13197;SDS011;6664;52.514;13.440;2024-02-14T04:06:54;3.47;;;3.17;;
13197;SDS011;6664;52.514;13.440;2024-02-14T04:09:39;3.30;;;3.07;;
13197;SDS011;6664;52.514;13.440;2024-02-14T04:12:25;3.47;;;2.90;;
13197;SDS011;6664;52.514;13.440;2024-02-14T04:15:10;3.40;;;3.10;;
13197;SDS011;6664;52.514;13.440;2024-02-14T04:17:59;7.87;;;3.40;;
13197;SDS011;6664;52.514;13.440;2024-02-14T04:20:51;3.63;;;3.33;;
13197;SDS011;6664;52.514;13.440;2024-02-14T04:23:36;8.10;;;3.73;;
13197;SDS011;6664;52.514;13.440;2024-02-14T04:26:22;6.43;;;3.80;;
13197;SDS011;6664;52.514;13.440;2024-02-14T04:29:08;4.30;;;3.30;;
13197;SDS011;6664;52.514;13.440;2024-02-14T04:31:54;3.50;;;3.20;;
13197;SDS011;6664;52.514;13.440;2024-02-14T04:34:40;6.30;;;3.30;;
13197;SDS011;6664;52.514;13.440;2024-02-14T04:37:29;4.17;;;3.27;;
13197;SDS011;6664;52.514;13.440;2024-02-14T04:40:14;3.70;;;3.40;;
13197;SDS011;6664;52.514;13.440;2024-02-14T04:43:00;6.13;;;4.10;;
13197;SDS011;6664;52.514;13.440;2024-02-14T04:45:46;4.23;;;3.73;;
13197;SDS011;6664;52.514;13.440;2024-02-14T04:48:32;3.40;;;3.10;;
13197;SDS011;6664;52.514;13.440;2024-02-14T04:51:21;7.70;;;3.53;;
13197;SDS011;6664;52.514;13.440;2024-02-14T04:54:07;14.13;;;3.90;;
13197;SDS011;6664;52.514;13.440;2024-02-14T04:56:54;6.53;;;3.50;;
13197;SDS011;6664;52.514;13.440;2024-02-14T04:59:46;4.63;;;4.23;;
13197;SDS011;6664;52.514;13.440;2024-02-14T05:02:32;4.57;;;3.30;;
13197;SDS011;6664;52.514;13.440;2024-02-14T05:05:18;5.47;;;3.77;;
13197;SDS011;6664;52.514;13.440;2024-02-14T05:08:05;7.43;;;4.67;;
13197;SDS011;6664;52.514;13.440;2024-02-14T05:10:52;3.70;;;3.30;;
13197;SDS011;6664;52.514;13.440;2024-02-14T05:13:37;3.63;;;3.33;;
13197;SDS011;6664;52.514;13.440;2024-02-14T05:16:22;3.13;;;2.93;;
13197;SDS011;6664;52.514;13.440;2024-02-14T05:19:08;6.80;;;3.80;;
13197;SDS011;6664;52.514;13.440;2024-02-14T05:21:58;4.17;;;3.70;;
13197;SDS011;6664;52.514;13.440;2024-02-14T05:24:43;4.47;;;3.60;;
13197;SDS011;6664;52.514;13.440;2024-02-14T05:27:33;5.90;;;3.83;;
13197;SDS011;6664;52.514;13.440;2024-02-14T05:30:19;2.93;;;2.70;;
13197;SDS011;6664;52.514;13.440;2024-02-14T05:33:05;6.10;;;3.83;;
13197;SDS011;6664;52.514;13.440;2024-02-14T05:35:51;4.30;;;3.63;;
13197;SDS011;6664;52.514;13.440;2024-02-14T05:38:36;6.70;;;3.63;;
13197;SDS011;6664;52.514;13.440;2024-02-14T05:41:23;5.57;;;3.90;;
13197;SDS011;6664;52.514;13.440;2024-02-14T05:44:09;4.40;;;3.53;;
13197;SDS011;6664;52.514;13.440;2024-02-14T05:46:54;4.40;;;4.03;;
13197;SDS011;6664;52.514;13.440;2024-02-14T05:49:42;4.90;;;3.73;;
13197;SDS011;6664;52.514;13.440;2024-02-14T05:52:28;3.90;;;2.87;;
13197;SDS011;6664;52.514;13.440;2024-02-14T05:55:18;6.97;;;4.00;;
13197;SDS011;6664;52.514;13.440;2024-02-14T05:58:10;3.87;;;3.57;;
13197;SDS011;6664;52.514;13.440;2024-02-14T06:01:00;4.03;;;3.10;;
13197;SDS011;6664;52.514;13.440;2024-02-14T06:03:46;4.70;;;3.60;;
13197;SDS011;6664;52.514;13.440;2024-02-14T06:06:32;4.73;;;3.03;;
13197;SDS011;6664;52.514;13.440;2024-02-14T06:09:18;5.10;;;3.77;;
13197;SDS011;6664;52.514;13.440;2024-02-14T06:12:03;4.67;;;3.53;;
13197;SDS011;6664;52.514;13.440;2024-02-14T06:14:51;3.63;;;3.20;;
13197;SDS011;6664;52.514;13.440;2024-02-14T06:17:36;7.83;;;3.47;;
13197;SDS011;6664;52.514;13.440;2024-02-14T06:20:22;3.90;;;3.40;;
13197;SDS011;6664;52.514;13.440;2024-02-14T06:23:07;4.50;;;2.87;;
13197;SDS011;6664;52.514;13.440;2024-02-14T06:25:55;3.07;;;2.77;;
13197;SDS011;6664;52.514;13.440;2024-02-14T06:28:44;13.20;;;3.40;;
13197;SDS011;6664;52.514;13.440;2024-02-14T06:31:30;3.53;;;2.87;;
13197;SDS011;6664;52.514;13.440;2024-02-14T06:34:16;7.57;;;2.57;;
13197;SDS011;6664;52.514;13.440;2024-02-14T06:37:02;2.93;;;2.73;;
13197;SDS011;6664;52.514;13.440;2024-02-14T06:39:49;8.37;;;3.10;;
13197;SDS011;6664;52.514;13.440;2024-02-14T06:42:35;3.93;;;3.50;;
13197;SDS011;6664;52.514;13.440;2024-02-14T06:45:20;3.83;;;3.33;;
13197;SDS011;6664;52.514;13.440;2024-02-14T06:48:08;4.07;;;3.20;;
13197;SDS011;6664;52.514;13.440;2024-02-14T06:50:57;5.67;;;2.80;;
13197;SDS011;6664;52.514;13.440;2024-02-14T06:53:44;3.00;;;2.63;;
13197;SDS011;6664;52.514;13.440;2024-02-14T06:56:30;4.20;;;3.13;;
13197;SDS011;6664;52.514;13.440;2024-02-14T06:59:16;2.90;;;2.70;;
13197;SDS011;6664;52.514;13.440;2024-02-14T07:02:04;3.33;;;3.03;;
13197;SDS011;6664;52.514;13.440;2024-02-14T07:04:58;3.57;;;2.90;;
13197;SDS011;6664;52.514;13.440;2024-02-14T07:07:43;3.97;;;2.57;;
13197;SDS011;6664;52.514;13.440;2024-02-14T07:10:29;4.63;;;3.00;;
13197;SDS011;6664;52.514;13.440;2024-02-14T07:13:15;4.10;;;2.97;;
13197;SDS011;6664;52.514;13.440;2024-02-14T07:16:00;3.50;;;3.00;;
13197;SDS011;6664;52.514;13.440;2024-02-14T07:18:46;4.13;;;2.80;;
13197;SDS011;6664;52.514;13.440;2024-02-14T07:21:32;3.40;;;3.07;;
13197;SDS011;6664;52.514;13.440;2024-02-14T07:24:22;4.23;;;2.77;;
13197;SDS011;6664;52.514;13.440;2024-02-14T07:27:08;5.80;;;3.10;;
13197;SDS011;6664;52.514;13.440;2024-02-14T07:29:56;4.73;;;3.00;;
13197;SDS011;6664;52.514;13.440;2024-02-14T07:32:43;4.43;;;2.77;;
13197;SDS011;6664;52.514;13.440;2024-02-14T07:35:36;3.10;;;2.30;;
13197;SDS011;6664;52.514;13.440;2024-02-14T07:38:22;4.27;;;2.50;;
13197;SDS011;6664;52.514;13.440;2024-02-14T07:41:08;8.73;;;2.63;;
13197;SDS011;6664;52.514;13.440;2024-02-14T07:43:53;3.50;;;2.90;;
13197;SDS011;6664;52.514;13.440;2024-02-14T07:46:39;4.50;;;3.10;;
13197;SDS011;6664;52.514;13.440;2024-02-14T07:49:24;3.00;;;2.70;;
13197;SDS011;6664;52.514;13.440;2024-02-14T07:52:10;6.00;;;2.77;;
13197;SDS011;6664;52.514;13.440;2024-02-14T07:54:56;3.20;;;2.10;;
13197;SDS011;6664;52.514;13.440;2024-02-14T07:57:41;3.23;;;1.80;;
13197;SDS011;6664;52.514;13.440;2024-02-14T08:00:27;4.53;;;2.57;;
13197;SDS011;6664;52.514;13.440;2024-02-14T08:03:13;4.60;;;2.80;;
13197;SDS011;6664;52.514;13.440;2024-02-14T08:05:59;2.50;;;2.20;;
13197;SDS011;6664;52.514;13.440;2024-02-14T08:08:47;2.60;;;2.40;;
13197;SDS011;6664;52.514;13.440;2024-02-14T08:11:37;3.00;;;2.47;;
13197;SDS011;6664;52.514;13.440;2024-02-14T08:14:23;5.20;;;3.00;;
13197;SDS011;6664;52.514;13.440;2024-02-14T08:17:08;7.60;;;2.53;;
13197;SDS011;6664;52.514;13.440;2024-02-14T08:19:56;3.20;;;2.50;;
13197;SDS011;6664;52.514;13.440;2024-02-14T08:22:41;2.30;;;2.10;;
13197;SDS011;6664;52.514;13.440;2024-02-14T08:25:27;2.80;;;2.33;;
13197;SDS011;6664;52.514;13.440;2024-02-14T08:28:12;2.83;;;2.50;;
13197;SDS011;6664;52.514;13.440;2024-02-14T08:30:57;5.50;;;2.70;;
13197;SDS011;6664;52.514;13.440;2024-02-14T08:33:43;2.93;;;2.60;;
13197;SDS011;6664;52.514;13.440;2024-02-14T08:36:29;3.10;;;2.80;;
13197;SDS011;6664;52.514;13.440;2024-02-14T08:39:18;3.17;;;2.87;;
13197;SDS011;6664;52.514;13.440;2024-02-14T08:42:05;3.10;;;2.60;;
13197;SDS011;6664;52.514;13.440;2024-02-14T08:44:52;2.67;;;2.43;;
13197;SDS011;6664;52.514;13.440;2024-02-14T08:47:38;4.57;;;2.70;;
13197;SDS011;6664;52.514;13.440;2024-02-14T08:50:25;2.90;;;2.60;;
13197;SDS011;6664;52.514;13.440;2024-02-14T08:53:10;2.70;;;1.70;;
13197;SDS011;6664;52.514;13.440;2024-02-14T08:55:58;6.73;;;2.70;;
13197;SDS011;6664;52.514;13.440;2024-02-14T08:58:44;2.83;;;2.53;;
13197;SDS011;6664;52.514;13.440;2024-02-14T09:01:29;4.10;;;3.00;;
13197;SDS011;6664;52.514;13.440;2024-02-14T09:04:18;3.57;;;2.70;;
13197;SDS011;6664;52.514;13.440;2024-02-14T09:07:03;4.20;;;2.80;;
13197;SDS011;6664;52.514;13.440;2024-02-14T09:09:49;3.57;;;2.60;;
13197;SDS011;6664;52.514;13.440;2024-02-14T09:12:34;3.63;;;2.87;;
13197;SDS011;6664;52.514;13.440;2024-02-14T09:15:20;3.40;;;2.27;;
13197;SDS011;6664;52.514;13.440;2024-02-14T09:18:06;2.27;;;2.07;;
13197;SDS011;6664;52.514;13.440;2024-02-14T09:20:52;7.60;;;2.53;;
13197;SDS011;6664;52.514;13.440;2024-02-14T09:23:38;4.07;;;2.90;;
13197;SDS011;6664;52.514;13.440;2024-02-14T09:26:25;3.40;;;2.20;;
13197;SDS011;6664;52.514;13.440;2024-02-14T09:29:11;3.67;;;2.40;;
13197;SDS011;6664;52.514;13.440;2024-02-14T09:31:57;3.57;;;2.07;;
13197;SDS011;6664;52.514;13.440;2024-02-14T09:34:44;2.20;;;2.00;;
13197;SDS011;6664;52.514;13.440;2024-02-14T09:37:30;2.43;;;2.23;;
13197;SDS011;6664;52.514;13.440;2024-02-14T09:40:16;6.97;;;2.20;;
13197;SDS011;6664;52.514;13.440;2024-02-14T09:43:02;1.80;;;1.70;;
13197;SDS011;6664;52.514;13.440;2024-02-14T09:45:50;3.37;;;1.90;;
13197;SDS011;6664;52.514;13.440;2024-02-14T09:48:37;2.27;;;1.60;;
13197;SDS011;6664;52.514;13.440;2024-02-14T09:51:24;3.93;;;1.80;;
13197;SDS011;6664;52.514;13.440;2024-02-14T09:54:10;1.70;;;1.60;;
13197;SDS011;6664;52.514;13.440;2024-02-14T09:56:59;3.23;;;1.30;;
13197;SDS011;6664;52.514;13.440;2024-02-14T09:59:46;2.17;;;1.83;;
13197;SDS011;6664;52.514;13.440;2024-02-14T10:02:33;2.73;;;1.67;;
13197;SDS011;6664;52.514;13.440;2024-02-14T10:05:20;4.20;;;1.90;;
13197;SDS011;6664;52.514;13.440;2024-02-14T10:08:06;1.83;;;1.73;;
13197;SDS011;6664;52.514;13.440;2024-02-14T10:10:56;2.50;;;2.20;;
13197;SDS011;6664;52.514;13.440;2024-02-14T10:13:44;4.17;;;1.90;;
13197;SDS011;6664;52.514;13.440;2024-02-14T10:16:31;4.97;;;1.20;;
13197;SDS011;6664;52.514;13.440;2024-02-14T10:19:18;5.60;;;1.60;;
13197;SDS011;6664;52.514;13.440;2024-02-14T10:22:04;1.40;;;1.30;;
13197;SDS011;6664;52.514;13.440;2024-02-14T10:24:52;3.93;;;1.77;;
13197;SDS011;6664;52.514;13.440;2024-02-14T10:27:42;1.47;;;1.37;;
13197;SDS011;6664;52.514;13.440;2024-02-14T10:30:27;1.63;;;1.53;;
13197;SDS011;6664;52.514;13.440;2024-02-14T10:33:13;3.20;;;1.40;;
13197;SDS011;6664;52.514;13.440;2024-02-14T10:36:12;2.17;;;1.80;;
13197;SDS011;6664;52.514;13.440;2024-02-14T10:38:58;1.40;;;1.27;;
13197;SDS011;6664;52.514;13.440;2024-02-14T10:41:44;5.90;;;2.20;;
13197;SDS011;6664;52.514;13.440;2024-02-14T10:44:31;1.70;;;1.60;;
13197;SDS011;6664;52.514;13.440;2024-02-14T10:47:18;1.73;;;1.63;;
13197;SDS011;6664;52.514;13.440;2024-02-14T10:50:06;3.30;;;1.97;;
13197;SDS011;6664;52.514;13.440;2024-02-14T10:52:53;1.93;;;1.73;;
13197;SDS011;6664;52.514;13.440;2024-02-14T10:55:45;12.63;;;1.70;;
13197;SDS011;6664;52.514;13.440;2024-02-14T10:58:35;3.50;;;2.17;;
13197;SDS011;6664;52.514;13.440;2024-02-14T11:01:21;4.60;;;2.10;;
13197;SDS011;6664;52.514;13.440;2024-02-14T11:04:10;7.23;;;1.73;;
13197;SDS011;6664;52.514;13.440;2024-02-14T11:06:59;3.70;;;1.80;;
13197;SDS011;6664;52.514;13.440;2024-02-14T11:09:48;2.43;;;1.70;;
13197;SDS011;6664;52.514;13.440;2024-02-14T11:12:46;2.03;;;1.93;;
13197;SDS011;6664;52.514;13.440;2024-02-14T11:15:35;2.47;;;1.70;;
13197;SDS011;6664;52.514;13.440;2024-02-14T11:18:27;1.90;;;1.53;;
13197;SDS011;6664;52.514;13.440;2024-02-14T11:21:20;3.27;;;1.60;;
13197;SDS011;6664;52.514;13.440;2024-02-14T11:24:06;4.10;;;1.93;;
13197;SDS011;6664;52.514;13.440;2024-02-14T11:26:54;2.50;;;2.30;;
13197;SDS011;6664;52.514;13.440;2024-02-14T11:29:50;4.57;;;1.83;;
13197;SDS011;6664;52.514;13.440;2024-02-14T11:32:37;1.30;;;1.20;;
13197;SDS011;6664;52.514;13.440;2024-02-14T11:35:27;1.67;;;1.47;;
13197;SDS011;6664;52.514;13.440;2024-02-14T11:38:13;1.53;;;1.40;;
13197;SDS011;6664;52.514;13.440;2024-02-14T11:40:59;2.67;;;1.93;;
13197;SDS011;6664;52.514;13.440;2024-02-14T11:43:51;2.73;;;1.73;;
13197;SDS011;6664;52.514;13.440;2024-02-14T11:46:37;4.43;;;1.97;;
13197;SDS011;6664;52.514;13.440;2024-02-14T11:49:22;1.67;;;1.50;;
13197;SDS011;6664;52.514;13.440;2024-02-14T11:52:11;3.40;;;1.90;;
13197;SDS011;6664;52.514;13.440;2024-02-14T11:54:59;3.23;;;2.30;;
13197;SDS011;6664;52.514;13.440;2024-02-14T11:57:44;4.20;;;1.50;;
13197;SDS011;6664;52.514;13.440;2024-02-14T12:00:32;4.60;;;1.93;;
13197;SDS011;6664;52.514;13.440;2024-02-14T12:03:21;3.93;;;1.60;;
13197;SDS011;6664;52.514;13.440;2024-02-14T12:06:07;7.23;;;1.80;;
13197;SDS011;6664;52.514;13.440;2024-02-14T12:08:54;3.20;;;2.00;;
13197;SDS011;6664;52.514;13.440;2024-02-14T12:11:41;2.03;;;1.87;;
13197;SDS011;6664;52.514;13.440;2024-02-14T12:14:34;2.13;;;1.90;;
13197;SDS011;6664;52.514;13.440;2024-02-14T12:17:21;2.13;;;1.83;;
13197;SDS011;6664;52.514;13.440;2024-02-14T12:20:12;2.23;;;2.03;;
13197;SDS011;6664;52.514;13.440;2024-02-14T12:22:59;2.53;;;2.10;;
13197;SDS011;6664;52.514;13.440;2024-02-14T12:25:47;1.73;;;1.63;;
13197;SDS011;6664;52.514;13.440;2024-02-14T12:28:34;5.23;;;2.00;;
13197;SDS011;6664;52.514;13.440;2024-02-14T12:31:24;3.27;;;2.33;;
13197;SDS011;6664;52.514;13.440;2024-02-14T12:34:11;4.40;;;1.80;;
13197;SDS011;6664;52.514;13.440;2024-02-14T12:36:57;2.37;;;1.93;;
13197;SDS011;6664;52.514;13.440;2024-02-14T12:39:45;4.13;;;1.70;;
13197;SDS011;6664;52.514;13.440;2024-02-14T12:42:32;2.77;;;1.47;;
13197;SDS011;6664;52.514;13.440;2024-02-14T12:45:20;1.97;;;1.87;;
13197;SDS011;6664;52.514;13.440;2024-02-14T12:48:09;4.97;;;1.80;;
13197;SDS011;6664;52.514;13.440;2024-02-14T12:50:59;2.73;;;1.83;;
13197;SDS011;6664;52.514;13.440;2024-02-14T12:53:44;3.90;;;2.80;;
13197;SDS011;6664;52.514;13.440;2024-02-14T12:56:30;2.53;;;1.93;;
13197;SDS011;6664;52.514;13.440;2024-02-14T12:59:17;4.17;;;1.73;;
13197;SDS011;6664;52.514;13.440;2024-02-14T13:02:03;4.23;;;1.73;;
13197;SDS011;6664;52.514;13.440;2024-02-14T13:04:51;2.43;;;2.10;;
13197;SDS011;6664;52.514;13.440;2024-02-14T13:07:37;2.90;;;2.10;;
13197;SDS011;6664;52.514;13.440;2024-02-14T13:10:23;2.60;;;1.90;;
13197;SDS011;6664;52.514;13.440;2024-02-14T13:13:09;2.60;;;1.70;;
13197;SDS011;6664;52.514;13.440;2024-02-14T13:15:59;3.03;;;2.20;;
13197;SDS011;6664;52.514;13.440;2024-02-14T13:18:44;1.70;;;1.60;;
13197;SDS011;6664;52.514;13.440;2024-02-14T13:21:33;6.20;;;1.77;;
13197;SDS011;6664;52.514;13.440;2024-02-14T13:24:21;2.13;;;1.93;;
13197;SDS011;6664;52.514;13.440;2024-02-14T13:27:06;5.30;;;1.90;;
13197;SDS011;6664;52.514;13.440;2024-02-14T13:29:52;2.20;;;1.80;;
13197;SDS011;6664;52.514;13.440;2024-02-14T13:32:39;3.60;;;2.23;;
13197;SDS011;6664;52.514;13.440;2024-02-14T13:35:25;3.20;;;1.77;;
13197;SDS011;6664;52.514;13.440;2024-02-14T13:38:10;2.33;;;1.70;;
13197;SDS011;6664;52.514;13.440;2024-02-14T13:40:58;2.20;;;1.57;;
13197;SDS011;6664;52.514;13.440;2024-02-14T13:43:44;4.27;;;2.03;;
13197;SDS011;6664;52.514;13.440;2024-02-14T13:46:32;3.23;;;2.37;;
13197;SDS011;6664;52.514;13.440;2024-02-14T13:49:17;3.00;;;2.23;;
13197;SDS011;6664;52.514;13.440;2024-02-14T13:52:06;3.10;;;2.07;;
13197;SDS011;6664;52.514;13.440;2024-02-14T13:54:52;3.33;;;2.27;;
13197;SDS011;6664;52.514;13.440;2024-02-14T13:57:38;2.07;;;1.97;;
13197;SDS011;6664;52.514;13.440;2024-02-14T14:00:24;3.47;;;2.30;;
13197;SDS011;6664;52.514;13.440;2024-02-14T14:03:10;6.83;;;2.53;;
13197;SDS011;6664;52.514;13.440;2024-02-14T14:05:58;6.30;;;1.73;;
13197;SDS011;6664;52.514;13.440;2024-02-14T14:08:45;2.83;;;2.50;;
13197;SDS011;6664;52.514;13.440;2024-02-14T14:11:35;6.90;;;2.60;;
13197;SDS011;6664;52.514;13.440;2024-02-14T14:14:24;5.97;;;2.43;;
13197;SDS011;6664;52.514;13.440;2024-02-14T14:17:11;2.40;;;2.20;;
13197;SDS011;6664;52.514;13.440;2024-02-14T14:20:02;2.37;;;2.17;;
13197;SDS011;6664;52.514;13.440;2024-02-14T14:22:53;3.27;;;2.57;;
13197;SDS011;6664;52.514;13.440;2024-02-14T14:25:41;5.10;;;2.30;;
13197;SDS011;6664;52.514;13.440;2024-02-14T14:28:29;2.60;;;2.40;;
13197;SDS011;6664;52.514;13.440;2024-02-14T14:31:16;3.20;;;2.00;;
13197;SDS011;6664;52.514;13.440;2024-02-14T14:34:02;1.93;;;1.67;;
13197;SDS011;6664;52.514;13.440;2024-02-14T14:36:50;2.27;;;2.13;;
13197;SDS011;6664;52.514;13.440;2024-02-14T14:39:38;2.33;;;2.13;;
13197;SDS011;6664;52.514;13.440;2024-02-14T14:42:23;3.53;;;2.33;;
13197;SDS011;6664;52.514;13.440;2024-02-14T14:45:09;3.83;;;3.10;;
13197;SDS011;6664;52.514;13.440;2024-02-14T14:47:55;2.17;;;2.07;;
13197;SDS011;6664;52.514;13.440;2024-02-14T14:50:41;3.83;;;2.60;;
13197;SDS011;6664;52.514;13.440;2024-02-14T14:53:27;3.70;;;2.10;;
13197;SDS011;6664;52.514;13.440;2024-02-14T14:56:13;2.60;;;2.20;;
13197;SDS011;6664;52.514;13.440;2024-02-14T14:58:59;4.80;;;2.30;;
13197;SDS011;6664;52.514;13.440;2024-02-14T15:01:48;2.30;;;1.90;;
13197;SDS011;6664;52.514;13.440;2024-02-14T15:04:36;2.93;;;2.40;;
13197;SDS011;6664;52.514;13.440;2024-02-14T15:07:25;2.60;;;2.40;;
13197;SDS011;6664;52.514;13.440;2024-02-14T15:10:10;7.23;;;2.30;;
13197;SDS011;6664;52.514;13.440;2024-02-14T15:12:56;3.10;;;2.40;;
13197;SDS011;6664;52.514;13.440;2024-02-14T15:15:43;4.33;;;2.50;;
13197;SDS011;6664;52.514;13.440;2024-02-14T15:18:29;3.97;;;2.67;;
13197;SDS011;6664;52.514;13.440;2024-02-14T15:21:15;4.10;;;2.40;;
13197;SDS011;6664;52.514;13.440;2024-02-14T15:24:01;4.93;;;2.57;;
13197;SDS011;6664;52.514;13.440;2024-02-14T15:26:49;3.50;;;2.60;;
13197;SDS011;6664;52.514;13.440;2024-02-14T15:29:45;3.57;;;2.67;;
13197;SDS011;6664;52.514;13.440;2024-02-14T15:32:49;3.37;;;2.53;;
13197;SDS011;6664;52.514;13.440;2024-02-14T15:35:56;9.20;;;2.30;;
13197;SDS011;6664;52.514;13.440;2024-02-14T15:38:43;2.40;;;2.20;;
13197;SDS011;6664;52.514;13.440;2024-02-14T15:41:29;2.47;;;1.90;;
13197;SDS011;6664;52.514;13.440;2024-02-14T15:44:14;5.20;;;2.73;;
13197;SDS011;6664;52.514;13.440;2024-02-14T15:47:00;2.33;;;2.23;;
13197;SDS011;6664;52.514;13.440;2024-02-14T15:49:46;2.80;;;2.50;;
13197;SDS011;6664;52.514;13.440;2024-02-14T15:52:32;3.93;;;2.57;;
13197;SDS011;6664;52.514;13.440;2024-02-14T15:55:20;3.10;;;2.23;;
13197;SDS011;6664;52.514;13.440;2024-02-14T15:58:05;3.90;;;2.53;;
13197;SDS011;6664;52.514;13.440;2024-02-14T16:00:51;2.20;;;1.93;;
13197;SDS011;6664;52.514;13.440;2024-02-14T16:03:41;5.00;;;2.57;;
13197;SDS011;6664;52.514;13.440;2024-02-14T16:06:26;6.80;;;2.37;;
13197;SDS011;6664;52.514;13.440;2024-02-14T16:09:15;5.57;;;3.17;;
13197;SDS011;6664;52.514;13.440;2024-02-14T16:12:00;2.10;;;2.00;;
13197;SDS011;6664;52.514;13.440;2024-02-14T16:14:46;3.27;;;2.50;;
13197;SDS011;6664;52.514;13.440;2024-02-14T16:17:32;3.30;;;2.97;;
13197;SDS011;6664;52.514;13.440;2024-02-14T16:20:17;6.33;;;2.97;;
13197;SDS011;6664;52.514;13.440;2024-02-14T16:23:09;5.57;;;2.47;;
13197;SDS011;6664;52.514;13.440;2024-02-14T16:25:57;2.70;;;2.10;;
13197;SDS011;6664;52.514;13.440;2024-02-14T16:28:42;3.43;;;2.40;;
13197;SDS011;6664;52.514;13.440;2024-02-14T16:31:28;3.40;;;2.90;;
13197;SDS011;6664;52.514;13.440;2024-02-14T16:34:15;6.73;;;2.40;;
13197;SDS011;6664;52.514;13.440;2024-02-14T16:37:04;4.20;;;2.43;;
13197;SDS011;6664;52.514;13.440;2024-02-14T16:39:50;2.87;;;2.53;;
13197;SDS011;6664;52.514;13.440;2024-02-14T16:42:36;5.47;;;2.80;;
13197;SDS011;6664;52.514;13.440;2024-02-14T16:45:21;3.00;;;2.80;;
13197;SDS011;6664;52.514;13.440;2024-02-14T16:48:07;2.70;;;2.50;;